createdAt,value
2018-03-29T00:00:02.276Z,0
2018-03-29T00:00:28.455Z,0
2018-03-29T00:00:54.587Z,0
2018-03-29T00:01:20.748Z,0
2018-03-29T00:01:46.886Z,0
2018-03-29T00:02:13.028Z,0
2018-03-29T00:02:39.186Z,0
2018-03-29T00:03:05.320Z,0
2018-03-29T00:03:31.486Z,0
2018-03-29T00:03:57.643Z,0
2018-03-29T00:04:23.779Z,0
2018-03-29T00:04:49.916Z,0
2018-03-29T00:05:16.051Z,0
2018-03-29T00:05:42.191Z,0
2018-03-29T00:06:08.322Z,0
2018-03-29T00:06:34.464Z,0
2018-03-29T00:07:00.598Z,0
2018-03-29T00:07:26.736Z,0
2018-03-29T00:07:52.870Z,0
2018-03-29T00:08:18.996Z,0
2018-03-29T00:08:45.134Z,0
2018-03-29T00:09:11.269Z,0
2018-03-29T00:09:37.431Z,0
2018-03-29T00:10:03.567Z,0
2018-03-29T00:10:29.696Z,0
2018-03-29T00:10:55.829Z,0
2018-03-29T00:11:21.964Z,0
2018-03-29T00:11:48.099Z,0
2018-03-29T00:12:14.241Z,0
2018-03-29T00:12:40.375Z,0
2018-03-29T00:13:06.510Z,0
2018-03-29T00:13:32.671Z,0
2018-03-29T00:13:58.811Z,0
2018-03-29T00:14:24.942Z,0
2018-03-29T00:14:51.107Z,0
2018-03-29T00:15:17.245Z,0
2018-03-29T00:15:43.381Z,0
2018-03-29T00:16:09.513Z,0
2018-03-29T00:16:35.672Z,0
2018-03-29T00:17:01.805Z,0
2018-03-29T00:17:27.961Z,0
2018-03-29T00:17:54.122Z,0
2018-03-29T00:18:20.255Z,0
2018-03-29T00:18:46.393Z,0
2018-03-29T00:19:12.520Z,0
2018-03-29T00:19:38.656Z,0
2018-03-29T00:20:04.799Z,0
2018-03-29T00:20:30.927Z,0
2018-03-29T00:20:57.067Z,0
2018-03-29T00:21:23.204Z,0
2018-03-29T00:21:49.343Z,0
2018-03-29T00:22:15.480Z,0
2018-03-29T00:22:41.618Z,0
2018-03-29T00:23:07.778Z,0
2018-03-29T00:23:33.916Z,0
2018-03-29T00:24:00.074Z,0
2018-03-29T00:24:26.213Z,0
2018-03-29T00:24:52.355Z,0
2018-03-29T00:25:18.492Z,0
2018-03-29T00:25:44.647Z,0
2018-03-29T00:26:10.781Z,0
2018-03-29T00:26:36.919Z,0
2018-03-29T00:27:03.073Z,0
2018-03-29T00:27:29.204Z,0
2018-03-29T00:27:55.344Z,0
2018-03-29T00:28:21.507Z,0
2018-03-29T00:28:47.638Z,0
2018-03-29T00:29:13.780Z,0
2018-03-29T00:29:39.914Z,0
2018-03-29T00:30:06.049Z,0
2018-03-29T00:30:32.183Z,0
2018-03-29T00:30:58.323Z,0
2018-03-29T00:31:24.452Z,0
2018-03-29T00:31:50.595Z,0
2018-03-29T00:32:16.734Z,0
2018-03-29T00:32:42.912Z,0
2018-03-29T00:33:09.077Z,0
2018-03-29T00:33:35.209Z,0
2018-03-29T00:34:01.350Z,0
2018-03-29T00:34:27.511Z,0
2018-03-29T00:34:53.648Z,0
2018-03-29T00:35:19.782Z,0
2018-03-29T00:35:45.923Z,0
2018-03-29T00:36:12.094Z,0
2018-03-29T00:36:38.228Z,0
2018-03-29T00:37:04.392Z,0
2018-03-29T00:37:30.526Z,0
2018-03-29T00:37:56.661Z,0
2018-03-29T00:38:22.795Z,0
2018-03-29T00:38:48.955Z,0
2018-03-29T00:39:15.091Z,0
2018-03-29T00:39:41.225Z,0
2018-03-29T00:40:07.409Z,0
2018-03-29T00:40:33.545Z,0
2018-03-29T00:40:59.672Z,0
2018-03-29T00:41:25.817Z,0
2018-03-29T00:41:51.951Z,0
2018-03-29T00:42:18.078Z,0
2018-03-29T00:42:44.217Z,0
2018-03-29T00:43:10.354Z,0
2018-03-29T00:43:36.488Z,0
2018-03-29T00:44:02.623Z,0
2018-03-29T00:44:28.757Z,0
2018-03-29T00:44:54.894Z,0
2018-03-29T00:45:21.029Z,0
2018-03-29T00:45:47.159Z,0
2018-03-29T00:46:13.304Z,0
2018-03-29T00:46:39.441Z,0
2018-03-29T00:47:05.573Z,0
2018-03-29T00:47:31.712Z,0
2018-03-29T00:47:57.842Z,0
2018-03-29T00:48:23.981Z,0
2018-03-29T00:48:50.111Z,0
2018-03-29T00:49:16.274Z,0
2018-03-29T00:49:42.411Z,0
2018-03-29T00:50:08.545Z,0
2018-03-29T00:50:34.680Z,0
2018-03-29T00:51:00.837Z,0
2018-03-29T00:51:26.973Z,0
2018-03-29T00:51:53.113Z,0
2018-03-29T00:52:19.247Z,0
2018-03-29T00:52:45.392Z,0
2018-03-29T00:53:11.520Z,0
2018-03-29T00:53:37.680Z,0
2018-03-29T00:54:03.819Z,0
2018-03-29T00:54:29.960Z,0
2018-03-29T00:54:56.090Z,0
2018-03-29T00:55:22.237Z,0
2018-03-29T00:55:48.394Z,0
2018-03-29T00:56:14.531Z,0
2018-03-29T00:56:40.669Z,0
2018-03-29T00:57:06.805Z,0
2018-03-29T00:57:32.943Z,0
2018-03-29T00:57:59.104Z,0
2018-03-29T00:58:25.236Z,0
2018-03-29T00:58:51.371Z,0
2018-03-29T00:59:17.507Z,0
2018-03-29T00:59:43.648Z,0
2018-03-29T01:00:09.783Z,0
2018-03-29T01:00:35.911Z,0
2018-03-29T01:01:02.072Z,0
2018-03-29T01:01:28.216Z,0
2018-03-29T01:01:54.351Z,0
2018-03-29T01:02:20.492Z,0
2018-03-29T01:02:46.636Z,0
2018-03-29T01:03:12.761Z,0
2018-03-29T01:03:38.895Z,0
2018-03-29T01:04:05.033Z,0
2018-03-29T01:04:31.171Z,0
2018-03-29T01:04:57.309Z,0
2018-03-29T01:05:23.445Z,0
2018-03-29T01:05:49.577Z,0
2018-03-29T01:06:15.720Z,0
2018-03-29T01:06:41.858Z,0
2018-03-29T01:07:07.992Z,0
2018-03-29T01:07:34.129Z,0
2018-03-29T01:08:00.268Z,0
2018-03-29T01:08:26.400Z,0
2018-03-29T01:08:52.536Z,0
2018-03-29T01:09:18.698Z,0
2018-03-29T01:09:44.837Z,0
2018-03-29T01:10:10.970Z,0
2018-03-29T01:10:37.137Z,0
2018-03-29T01:11:03.282Z,0
2018-03-29T01:11:29.438Z,0
2018-03-29T01:11:55.574Z,0
2018-03-29T01:12:21.734Z,0
2018-03-29T01:12:47.893Z,0
2018-03-29T01:13:14.028Z,0
2018-03-29T01:13:40.166Z,0
2018-03-29T01:14:06.306Z,0
2018-03-29T01:14:32.465Z,0
2018-03-29T01:14:58.600Z,0
2018-03-29T01:15:24.730Z,0
2018-03-29T01:15:50.876Z,0
2018-03-29T01:16:17.027Z,0
2018-03-29T01:16:43.172Z,0
2018-03-29T01:17:09.299Z,0
2018-03-29T01:17:35.466Z,0
2018-03-29T01:18:01.600Z,0
2018-03-29T01:18:27.735Z,0
2018-03-29T01:18:53.868Z,0
2018-03-29T01:19:19.994Z,0
2018-03-29T01:19:46.136Z,0
2018-03-29T01:20:12.269Z,0
2018-03-29T01:20:38.404Z,0
2018-03-29T01:21:04.540Z,0
2018-03-29T01:21:30.677Z,0
2018-03-29T01:21:56.805Z,0
2018-03-29T01:22:22.947Z,0
2018-03-29T01:22:49.082Z,0
2018-03-29T01:23:15.253Z,0
2018-03-29T01:23:41.399Z,0
2018-03-29T01:24:07.535Z,0
2018-03-29T01:24:33.676Z,0
2018-03-29T01:24:59.837Z,0
2018-03-29T01:25:25.976Z,0
2018-03-29T01:25:52.109Z,0
2018-03-29T01:26:18.271Z,0
2018-03-29T01:26:44.404Z,0
2018-03-29T01:27:10.543Z,0
2018-03-29T01:27:36.679Z,0
2018-03-29T01:28:02.817Z,0
2018-03-29T01:28:28.955Z,0
2018-03-29T01:28:55.090Z,0
2018-03-29T01:29:21.230Z,0
2018-03-29T01:29:47.362Z,0
2018-03-29T01:30:13.500Z,0
2018-03-29T01:30:39.630Z,0
2018-03-29T01:31:05.765Z,0
2018-03-29T01:31:31.912Z,0
2018-03-29T01:31:58.044Z,0
2018-03-29T01:32:24.203Z,0
2018-03-29T01:32:50.341Z,0
2018-03-29T01:33:16.481Z,0
2018-03-29T01:33:42.616Z,0
2018-03-29T01:34:08.748Z,0
2018-03-29T01:34:34.885Z,0
2018-03-29T01:35:01.022Z,0
2018-03-29T01:35:27.154Z,0
2018-03-29T01:35:53.288Z,0
2018-03-29T01:36:19.420Z,0
2018-03-29T01:36:45.556Z,0
2018-03-29T01:37:11.691Z,0
2018-03-29T01:37:37.829Z,0
2018-03-29T01:38:03.961Z,0
2018-03-29T01:38:30.104Z,0
2018-03-29T01:38:56.238Z,0
2018-03-29T01:39:22.375Z,0
2018-03-29T01:39:48.520Z,0
2018-03-29T01:40:14.656Z,0
2018-03-29T01:40:40.791Z,0
2018-03-29T01:41:06.933Z,0
2018-03-29T01:41:33.061Z,0
2018-03-29T01:41:59.198Z,0
2018-03-29T01:42:25.338Z,0
2018-03-29T01:42:51.478Z,0
2018-03-29T01:43:17.619Z,0
2018-03-29T01:43:43.751Z,0
2018-03-29T01:44:09.894Z,0
2018-03-29T01:44:36.030Z,0
2018-03-29T01:45:02.173Z,0
2018-03-29T01:45:28.330Z,0
2018-03-29T01:45:54.467Z,0
2018-03-29T01:46:20.631Z,0
2018-03-29T01:46:46.765Z,0
2018-03-29T01:47:12.912Z,0
2018-03-29T01:47:39.046Z,0
2018-03-29T01:48:05.210Z,0
2018-03-29T01:48:31.367Z,0
2018-03-29T01:48:57.501Z,0
2018-03-29T01:49:23.662Z,0
2018-03-29T01:49:49.797Z,0
2018-03-29T01:50:15.935Z,0
2018-03-29T01:50:42.096Z,0
2018-03-29T01:51:08.240Z,0
2018-03-29T01:51:34.388Z,0
2018-03-29T01:52:00.543Z,0
2018-03-29T01:52:26.673Z,0
2018-03-29T01:52:52.837Z,0
2018-03-29T01:53:18.981Z,0
2018-03-29T01:53:45.122Z,0
2018-03-29T01:54:11.289Z,0
2018-03-29T01:54:37.423Z,0
2018-03-29T01:55:03.550Z,0
2018-03-29T01:55:29.683Z,0
2018-03-29T01:55:55.822Z,0
2018-03-29T01:56:21.983Z,0
2018-03-29T01:56:48.116Z,0
2018-03-29T01:57:14.269Z,0
2018-03-29T01:57:40.399Z,0
2018-03-29T01:58:06.567Z,0
2018-03-29T01:58:32.697Z,0
2018-03-29T01:58:58.835Z,0
2018-03-29T01:59:24.972Z,0
2018-03-29T01:59:51.112Z,0
2018-03-29T02:00:17.243Z,0
2018-03-29T02:00:43.405Z,0
2018-03-29T02:01:09.542Z,0
2018-03-29T02:01:35.684Z,0
2018-03-29T02:02:01.821Z,0
2018-03-29T02:02:27.952Z,0
2018-03-29T02:02:54.092Z,0
2018-03-29T02:03:20.220Z,0
2018-03-29T02:03:46.355Z,0
2018-03-29T02:04:12.521Z,0
2018-03-29T02:04:38.688Z,0
2018-03-29T02:05:04.814Z,0
2018-03-29T02:05:30.975Z,0
2018-03-29T02:05:57.131Z,0
2018-03-29T02:06:23.261Z,0
2018-03-29T02:06:49.400Z,0
2018-03-29T02:07:15.540Z,0
2018-03-29T02:07:41.708Z,0
2018-03-29T02:08:07.808Z,0
2018-03-29T02:08:33.946Z,0
2018-03-29T02:09:00.079Z,0
2018-03-29T02:09:26.210Z,0
2018-03-29T02:09:52.370Z,0
2018-03-29T02:10:18.505Z,0
2018-03-29T02:10:44.642Z,0
2018-03-29T02:11:10.782Z,0
2018-03-29T02:11:36.917Z,0
2018-03-29T02:12:03.059Z,0
2018-03-29T02:12:29.188Z,0
2018-03-29T02:12:55.327Z,0
2018-03-29T02:13:21.466Z,0
2018-03-29T02:13:47.618Z,0
2018-03-29T02:14:13.755Z,0
2018-03-29T02:14:39.888Z,0
2018-03-29T02:15:06.020Z,0
2018-03-29T02:15:32.158Z,0
2018-03-29T02:15:58.296Z,0
2018-03-29T02:16:24.433Z,0
2018-03-29T02:16:50.564Z,0
2018-03-29T02:17:16.703Z,0
2018-03-29T02:17:42.834Z,0
2018-03-29T02:18:08.996Z,0
2018-03-29T02:18:35.110Z,0
2018-03-29T02:19:01.244Z,0
2018-03-29T02:19:27.377Z,0
2018-03-29T02:19:53.517Z,0
2018-03-29T02:20:19.649Z,0
2018-03-29T02:20:45.787Z,0
2018-03-29T02:21:11.964Z,0
2018-03-29T02:21:38.101Z,0
2018-03-29T02:22:04.259Z,0
2018-03-29T02:22:30.398Z,0
2018-03-29T02:22:56.527Z,0
2018-03-29T02:23:22.659Z,0
2018-03-29T02:23:48.800Z,0
2018-03-29T02:24:14.933Z,0
2018-03-29T02:24:41.070Z,0
2018-03-29T02:25:07.202Z,0
2018-03-29T02:25:33.339Z,0
2018-03-29T02:25:59.469Z,0
2018-03-29T02:26:25.612Z,0
2018-03-29T02:26:51.747Z,0
2018-03-29T02:27:17.884Z,0
2018-03-29T02:27:44.043Z,0
2018-03-29T02:28:10.174Z,0
2018-03-29T02:28:36.309Z,0
2018-03-29T02:29:02.446Z,0
2018-03-29T02:29:28.586Z,0
2018-03-29T02:29:54.720Z,0
2018-03-29T02:30:20.873Z,0
2018-03-29T02:30:47.063Z,0
2018-03-29T02:31:13.196Z,0
2018-03-29T02:31:39.351Z,0
2018-03-29T02:32:05.486Z,0
2018-03-29T02:32:31.649Z,0
2018-03-29T02:32:57.788Z,0
2018-03-29T02:33:23.945Z,0
2018-03-29T02:33:50.080Z,0
2018-03-29T02:34:16.263Z,0
2018-03-29T02:34:42.403Z,0
2018-03-29T02:35:08.536Z,0
2018-03-29T02:35:34.677Z,0
2018-03-29T02:36:00.807Z,0
2018-03-29T02:36:26.947Z,0
2018-03-29T02:36:53.090Z,0
2018-03-29T02:37:19.221Z,0
2018-03-29T02:37:45.361Z,0
2018-03-29T02:38:11.502Z,0
2018-03-29T02:38:37.638Z,0
2018-03-29T02:39:03.770Z,0
2018-03-29T02:39:29.908Z,0
2018-03-29T02:39:56.099Z,0
2018-03-29T02:40:22.230Z,0
2018-03-29T02:40:48.382Z,0
2018-03-29T02:41:14.508Z,0
2018-03-29T02:41:40.649Z,0
2018-03-29T02:42:06.802Z,0
2018-03-29T02:42:32.963Z,0
2018-03-29T02:42:59.097Z,0
2018-03-29T02:43:25.233Z,0
2018-03-29T02:43:51.380Z,0
2018-03-29T02:44:17.523Z,0
2018-03-29T02:44:43.662Z,0
2018-03-29T02:45:09.801Z,0
2018-03-29T02:45:35.929Z,0
2018-03-29T02:46:02.066Z,0
2018-03-29T02:46:28.203Z,0
2018-03-29T02:46:54.363Z,0
2018-03-29T02:47:20.496Z,0
2018-03-29T02:47:46.630Z,0
2018-03-29T02:48:12.821Z,0
2018-03-29T02:48:38.956Z,0
2018-03-29T02:49:05.090Z,0
2018-03-29T02:49:31.258Z,0
2018-03-29T02:49:57.391Z,0
2018-03-29T02:50:23.554Z,0
2018-03-29T02:50:49.697Z,0
2018-03-29T02:51:15.843Z,0
2018-03-29T02:51:41.964Z,0
2018-03-29T02:52:08.097Z,0
2018-03-29T02:52:34.237Z,0
2018-03-29T02:53:00.384Z,0
2018-03-29T02:53:26.513Z,0
2018-03-29T02:53:52.652Z,0
2018-03-29T02:54:18.784Z,0
2018-03-29T02:54:44.937Z,0
2018-03-29T02:55:11.053Z,0
2018-03-29T02:55:37.213Z,0
2018-03-29T02:56:03.344Z,0
2018-03-29T02:56:29.483Z,0
2018-03-29T02:56:55.661Z,0
2018-03-29T02:57:21.792Z,0
2018-03-29T02:57:47.951Z,0
2018-03-29T02:58:14.091Z,0
2018-03-29T02:58:40.226Z,0
2018-03-29T02:59:06.361Z,0
2018-03-29T02:59:32.500Z,0
2018-03-29T02:59:58.633Z,0
2018-03-29T03:00:24.762Z,0
2018-03-29T03:00:50.930Z,0
2018-03-29T03:01:17.083Z,0
2018-03-29T03:01:43.226Z,0
2018-03-29T03:02:09.362Z,0
2018-03-29T03:02:35.521Z,0
2018-03-29T03:03:01.658Z,0
2018-03-29T03:03:27.814Z,0
2018-03-29T03:03:53.953Z,0
2018-03-29T03:04:20.087Z,0
2018-03-29T03:04:46.249Z,0
2018-03-29T03:05:12.381Z,0
2018-03-29T03:05:38.520Z,0
2018-03-29T03:06:04.647Z,0
2018-03-29T03:06:30.788Z,0
2018-03-29T03:06:56.925Z,0
2018-03-29T03:07:23.087Z,0
2018-03-29T03:07:49.250Z,0
2018-03-29T03:08:15.433Z,0
2018-03-29T03:08:41.523Z,0
2018-03-29T03:09:07.659Z,0
2018-03-29T03:09:33.792Z,0
2018-03-29T03:09:59.931Z,0
2018-03-29T03:10:26.060Z,0
2018-03-29T03:10:52.195Z,0
2018-03-29T03:11:18.334Z,0
2018-03-29T03:11:44.471Z,0
2018-03-29T03:12:10.634Z,0
2018-03-29T03:12:36.765Z,0
2018-03-29T03:13:02.898Z,0
2018-03-29T03:13:29.036Z,0
2018-03-29T03:13:55.176Z,0
2018-03-29T03:14:21.308Z,0
2018-03-29T03:14:47.451Z,0
2018-03-29T03:15:13.604Z,0
2018-03-29T03:15:39.744Z,0
2018-03-29T03:16:05.876Z,0
2018-03-29T03:16:32.065Z,0
2018-03-29T03:16:58.202Z,0
2018-03-29T03:17:24.333Z,0
2018-03-29T03:17:50.482Z,0
2018-03-29T03:18:16.609Z,0
2018-03-29T03:18:42.746Z,0
2018-03-29T03:19:08.884Z,0
2018-03-29T03:19:35.080Z,0
2018-03-29T03:20:01.220Z,0
2018-03-29T03:20:27.353Z,0
2018-03-29T03:20:53.517Z,0
2018-03-29T03:21:19.652Z,0
2018-03-29T03:21:45.785Z,0
2018-03-29T03:22:11.926Z,0
2018-03-29T03:22:38.064Z,0
2018-03-29T03:23:04.203Z,0
2018-03-29T03:23:30.344Z,0
2018-03-29T03:23:56.475Z,0
2018-03-29T03:24:22.603Z,0
2018-03-29T03:24:48.769Z,0
2018-03-29T03:25:14.910Z,0
2018-03-29T03:25:41.041Z,0
2018-03-29T03:26:07.177Z,0
2018-03-29T03:26:33.318Z,0
2018-03-29T03:26:59.447Z,0
2018-03-29T03:27:25.586Z,0
2018-03-29T03:27:51.734Z,0
2018-03-29T03:28:17.862Z,0
2018-03-29T03:28:43.991Z,0
2018-03-29T03:29:10.132Z,0
2018-03-29T03:29:36.276Z,0
2018-03-29T03:30:02.411Z,0
2018-03-29T03:30:28.544Z,0
2018-03-29T03:30:54.687Z,0
2018-03-29T03:31:20.825Z,0
2018-03-29T03:31:46.960Z,0
2018-03-29T03:32:13.090Z,0
2018-03-29T03:32:39.236Z,0
2018-03-29T03:33:05.364Z,0
2018-03-29T03:33:31.499Z,0
2018-03-29T03:33:57.633Z,0
2018-03-29T03:34:23.767Z,0
2018-03-29T03:34:49.903Z,0
2018-03-29T03:35:16.031Z,0
2018-03-29T03:35:42.173Z,0
2018-03-29T03:36:08.306Z,0
2018-03-29T03:36:34.445Z,0
2018-03-29T03:37:00.627Z,0
2018-03-29T03:37:26.740Z,0
2018-03-29T03:37:52.873Z,0
2018-03-29T03:38:19.005Z,0
2018-03-29T03:38:45.164Z,0
2018-03-29T03:39:11.305Z,0
2018-03-29T03:39:37.435Z,0
2018-03-29T03:40:03.603Z,0
2018-03-29T03:40:29.735Z,0
2018-03-29T03:40:55.877Z,0
2018-03-29T03:41:22.032Z,0
2018-03-29T03:41:48.163Z,0
2018-03-29T03:42:14.300Z,0
2018-03-29T03:42:40.436Z,0
2018-03-29T03:43:06.572Z,0
2018-03-29T03:43:32.707Z,0
2018-03-29T03:43:58.845Z,0
2018-03-29T03:44:24.989Z,0
2018-03-29T03:44:51.122Z,0
2018-03-29T03:45:17.272Z,0
2018-03-29T03:45:43.440Z,0
2018-03-29T03:46:09.581Z,0
2018-03-29T03:46:35.714Z,0
2018-03-29T03:47:01.870Z,0
2018-03-29T03:47:28.036Z,0
2018-03-29T03:47:54.170Z,0
2018-03-29T03:48:20.308Z,0
2018-03-29T03:48:46.446Z,0
2018-03-29T03:49:12.578Z,0
2018-03-29T03:49:38.708Z,0
2018-03-29T03:50:04.848Z,0
2018-03-29T03:50:30.980Z,0
2018-03-29T03:50:57.119Z,0
2018-03-29T03:51:23.260Z,0
2018-03-29T03:51:49.394Z,0
2018-03-29T03:52:15.558Z,0
2018-03-29T03:52:41.696Z,0
2018-03-29T03:53:07.838Z,0
2018-03-29T03:53:33.969Z,0
2018-03-29T03:54:00.112Z,0
2018-03-29T03:54:26.249Z,0
2018-03-29T03:54:52.385Z,0
2018-03-29T03:55:18.518Z,0
2018-03-29T03:55:44.656Z,0
2018-03-29T03:56:10.789Z,0
2018-03-29T03:56:36.927Z,0
2018-03-29T03:57:03.061Z,0
2018-03-29T03:57:29.189Z,0
2018-03-29T03:57:55.345Z,0
2018-03-29T03:58:21.495Z,0
2018-03-29T03:58:47.647Z,0
2018-03-29T03:59:13.793Z,0
2018-03-29T03:59:39.924Z,0
2018-03-29T04:00:06.070Z,0
2018-03-29T04:00:32.262Z,0
2018-03-29T04:00:58.386Z,0
2018-03-29T04:01:24.532Z,0
2018-03-29T04:01:50.663Z,0
2018-03-29T04:02:16.814Z,0
2018-03-29T04:02:42.941Z,0
2018-03-29T04:03:09.078Z,0
2018-03-29T04:03:35.216Z,0
2018-03-29T04:04:01.344Z,0
2018-03-29T04:04:27.483Z,0
2018-03-29T04:04:53.622Z,0
2018-03-29T04:05:19.757Z,0
2018-03-29T04:05:45.890Z,0
2018-03-29T04:06:12.055Z,0
2018-03-29T04:06:38.193Z,0
2018-03-29T04:07:04.334Z,0
2018-03-29T04:07:30.494Z,0
2018-03-29T04:07:56.629Z,0
2018-03-29T04:08:22.788Z,0
2018-03-29T04:08:48.924Z,0
2018-03-29T04:09:15.060Z,0
2018-03-29T04:09:41.193Z,0
2018-03-29T04:10:07.329Z,0
2018-03-29T04:10:33.477Z,0
2018-03-29T04:10:59.625Z,0
2018-03-29T04:11:25.759Z,0
2018-03-29T04:11:51.912Z,0
2018-03-29T04:12:18.082Z,0
2018-03-29T04:12:44.179Z,0
2018-03-29T04:13:10.314Z,0
2018-03-29T04:13:36.454Z,0
2018-03-29T04:14:02.588Z,0
2018-03-29T04:14:28.721Z,0
2018-03-29T04:14:54.859Z,0
2018-03-29T04:15:20.990Z,0
2018-03-29T04:15:47.154Z,0
2018-03-29T04:16:13.286Z,0
2018-03-29T04:16:39.422Z,0
2018-03-29T04:17:05.553Z,0
2018-03-29T04:17:31.688Z,0
2018-03-29T04:17:57.822Z,0
2018-03-29T04:18:23.959Z,0
2018-03-29T04:18:50.094Z,0
2018-03-29T04:19:16.257Z,0
2018-03-29T04:19:42.390Z,0
2018-03-29T04:20:08.518Z,0
2018-03-29T04:20:34.655Z,0
2018-03-29T04:21:00.798Z,0
2018-03-29T04:21:26.933Z,0
2018-03-29T04:21:53.085Z,0
2018-03-29T04:22:19.250Z,0
2018-03-29T04:22:45.390Z,0
2018-03-29T04:23:11.522Z,0
2018-03-29T04:23:37.653Z,0
2018-03-29T04:24:03.791Z,0
2018-03-29T04:24:29.929Z,0
2018-03-29T04:24:56.064Z,0
2018-03-29T04:25:22.200Z,0
2018-03-29T04:25:48.340Z,0
2018-03-29T04:26:14.500Z,0
2018-03-29T04:26:40.633Z,0
2018-03-29T04:27:06.760Z,0
2018-03-29T04:27:32.897Z,0
2018-03-29T04:27:59.032Z,0
2018-03-29T04:28:25.199Z,0
2018-03-29T04:28:51.333Z,0
2018-03-29T04:29:17.478Z,0
2018-03-29T04:29:43.612Z,0
2018-03-29T04:30:09.782Z,0
2018-03-29T04:30:35.916Z,0
2018-03-29T04:31:02.050Z,0
2018-03-29T04:31:28.216Z,0
2018-03-29T04:31:54.344Z,0
2018-03-29T04:32:20.471Z,0
2018-03-29T04:32:46.634Z,0
2018-03-29T04:33:12.766Z,0
2018-03-29T04:33:38.926Z,0
2018-03-29T04:34:05.066Z,0
2018-03-29T04:34:31.196Z,0
2018-03-29T04:34:57.326Z,0
2018-03-29T04:35:23.488Z,0
2018-03-29T04:35:49.643Z,0
2018-03-29T04:36:15.786Z,0
2018-03-29T04:36:41.920Z,0
2018-03-29T04:37:08.052Z,0
2018-03-29T04:37:34.189Z,0
2018-03-29T04:38:00.323Z,0
2018-03-29T04:38:26.466Z,0
2018-03-29T04:38:52.600Z,0
2018-03-29T04:39:18.732Z,0
2018-03-29T04:39:44.874Z,0
2018-03-29T04:40:11.006Z,0
2018-03-29T04:40:37.142Z,0
2018-03-29T04:41:03.291Z,0
2018-03-29T04:41:29.449Z,0
2018-03-29T04:41:55.583Z,0
2018-03-29T04:42:21.719Z,0
2018-03-29T04:42:47.878Z,0
2018-03-29T04:43:14.036Z,0
2018-03-29T04:43:40.174Z,0
2018-03-29T04:44:06.310Z,0
2018-03-29T04:44:32.493Z,0
2018-03-29T04:44:58.626Z,0
2018-03-29T04:45:24.753Z,0
2018-03-29T04:45:50.893Z,0
2018-03-29T04:46:17.055Z,0
2018-03-29T04:46:43.192Z,0
2018-03-29T04:47:09.319Z,0
2018-03-29T04:47:35.456Z,0
2018-03-29T04:48:01.623Z,0
2018-03-29T04:48:27.731Z,0
2018-03-29T04:48:53.860Z,0
2018-03-29T04:49:20.000Z,0
2018-03-29T04:49:46.167Z,0
2018-03-29T04:50:12.302Z,0
2018-03-29T04:50:38.442Z,0
2018-03-29T04:51:04.572Z,0
2018-03-29T04:51:30.711Z,0
2018-03-29T04:51:56.842Z,0
2018-03-29T04:52:22.973Z,0
2018-03-29T04:52:49.158Z,0
2018-03-29T04:53:15.244Z,0
2018-03-29T04:53:41.381Z,0
2018-03-29T04:54:07.522Z,0
2018-03-29T04:54:33.656Z,0
2018-03-29T04:54:59.791Z,0
2018-03-29T04:55:25.927Z,0
2018-03-29T04:55:52.065Z,0
2018-03-29T04:56:18.224Z,0
2018-03-29T04:56:44.357Z,0
2018-03-29T04:57:10.507Z,0
2018-03-29T04:57:36.636Z,0
2018-03-29T04:58:02.775Z,0
2018-03-29T04:58:28.910Z,0
2018-03-29T04:58:55.049Z,0
2018-03-29T04:59:21.183Z,0
2018-03-29T04:59:47.317Z,0
2018-03-29T05:00:13.488Z,0
2018-03-29T05:00:39.625Z,0
2018-03-29T05:01:05.766Z,0
2018-03-29T05:01:31.902Z,0
2018-03-29T05:01:58.036Z,0
2018-03-29T05:02:24.171Z,0
2018-03-29T05:02:50.308Z,0
2018-03-29T05:03:16.446Z,0
2018-03-29T05:03:42.580Z,0
2018-03-29T05:04:08.714Z,0
2018-03-29T05:04:34.853Z,0
2018-03-29T05:05:01.032Z,0
2018-03-29T05:05:27.124Z,0
2018-03-29T05:05:53.282Z,0
2018-03-29T05:06:19.419Z,0
2018-03-29T05:06:45.557Z,0
2018-03-29T05:07:11.719Z,0
2018-03-29T05:07:37.875Z,0
2018-03-29T05:08:03.990Z,0
2018-03-29T05:08:30.150Z,0
2018-03-29T05:08:56.286Z,0
2018-03-29T05:09:22.423Z,0
2018-03-29T05:09:48.561Z,0
2018-03-29T05:10:14.697Z,0
2018-03-29T05:10:40.853Z,0
2018-03-29T05:11:07.000Z,0
2018-03-29T05:11:33.135Z,0
2018-03-29T05:11:59.294Z,0
2018-03-29T05:12:25.434Z,0
2018-03-29T05:12:51.615Z,0
2018-03-29T05:13:17.754Z,5
2018-03-29T05:13:43.885Z,5
2018-03-29T05:14:10.028Z,5
2018-03-29T05:14:36.160Z,5
2018-03-29T05:15:02.300Z,5
2018-03-29T05:15:28.435Z,5
2018-03-29T05:15:54.575Z,5
2018-03-29T05:16:20.711Z,5
2018-03-29T05:16:46.848Z,5
2018-03-29T05:17:12.983Z,5
2018-03-29T05:17:39.117Z,5
2018-03-29T05:18:05.259Z,5
2018-03-29T05:18:31.395Z,5
2018-03-29T05:18:57.537Z,5
2018-03-29T05:19:23.672Z,5
2018-03-29T05:19:49.820Z,5
2018-03-29T05:20:15.946Z,5
2018-03-29T05:20:42.075Z,5
2018-03-29T05:21:08.247Z,5
2018-03-29T05:21:34.384Z,5
2018-03-29T05:22:00.522Z,0
2018-03-29T05:22:26.662Z,5
2018-03-29T05:22:52.798Z,5
2018-03-29T05:23:18.935Z,5
2018-03-29T05:23:45.092Z,5
2018-03-29T05:24:11.226Z,5
2018-03-29T05:24:37.371Z,5
2018-03-29T05:25:03.532Z,5
2018-03-29T05:25:29.675Z,5
2018-03-29T05:25:55.808Z,5
2018-03-29T05:26:21.996Z,5
2018-03-29T05:26:48.083Z,5
2018-03-29T05:27:14.266Z,5
2018-03-29T05:27:40.423Z,5
2018-03-29T05:28:06.563Z,5
2018-03-29T05:28:32.694Z,5
2018-03-29T05:28:58.834Z,5
2018-03-29T05:29:24.968Z,5
2018-03-29T05:29:51.099Z,5
2018-03-29T05:30:17.242Z,5
2018-03-29T05:30:43.385Z,5
2018-03-29T05:31:09.521Z,10
2018-03-29T05:31:35.664Z,10
2018-03-29T05:32:01.814Z,10
2018-03-29T05:32:27.950Z,10
2018-03-29T05:32:54.082Z,10
2018-03-29T05:33:20.221Z,10
2018-03-29T05:33:46.359Z,10
2018-03-29T05:34:12.497Z,10
2018-03-29T05:34:38.634Z,10
2018-03-29T05:35:04.793Z,10
2018-03-29T05:35:30.952Z,10
2018-03-29T05:35:57.113Z,10
2018-03-29T05:36:23.244Z,10
2018-03-29T05:36:49.379Z,10
2018-03-29T05:37:15.515Z,10
2018-03-29T05:37:41.656Z,10
2018-03-29T05:38:07.783Z,15
2018-03-29T05:38:33.917Z,15
2018-03-29T05:39:00.057Z,15
2018-03-29T05:39:26.195Z,15
2018-03-29T05:39:52.355Z,15
2018-03-29T05:40:18.492Z,15
2018-03-29T05:40:44.668Z,15
2018-03-29T05:41:10.756Z,15
2018-03-29T05:41:36.894Z,15
2018-03-29T05:42:03.059Z,15
2018-03-29T05:42:29.197Z,15
2018-03-29T05:42:55.324Z,15
2018-03-29T05:43:21.458Z,15
2018-03-29T05:43:47.597Z,15
2018-03-29T05:44:13.736Z,20
2018-03-29T05:44:39.872Z,20
2018-03-29T05:45:06.027Z,20
2018-03-29T05:45:32.162Z,20
2018-03-29T05:45:58.321Z,20
2018-03-29T05:46:24.459Z,20
2018-03-29T05:46:50.625Z,20
2018-03-29T05:47:16.787Z,25
2018-03-29T05:47:42.919Z,25
2018-03-29T05:48:09.058Z,30
2018-03-29T05:48:35.195Z,30
2018-03-29T05:49:01.335Z,35
2018-03-29T05:49:27.462Z,35
2018-03-29T05:49:53.633Z,35
2018-03-29T05:50:19.766Z,30
2018-03-29T05:50:45.895Z,30
2018-03-29T05:51:12.031Z,35
2018-03-29T05:51:38.177Z,35
2018-03-29T05:52:04.306Z,35
2018-03-29T05:52:30.446Z,30
2018-03-29T05:52:56.587Z,30
2018-03-29T05:53:22.727Z,30
2018-03-29T05:53:48.880Z,35
2018-03-29T05:54:15.021Z,40
2018-03-29T05:54:41.179Z,40
2018-03-29T05:55:07.344Z,40
2018-03-29T05:55:33.475Z,40
2018-03-29T05:55:59.611Z,35
2018-03-29T05:56:25.749Z,35
2018-03-29T05:56:51.880Z,35
2018-03-29T05:57:18.013Z,35
2018-03-29T05:57:44.152Z,30
2018-03-29T05:58:10.286Z,30
2018-03-29T05:58:36.429Z,30
2018-03-29T05:59:02.562Z,35
2018-03-29T05:59:28.703Z,35
2018-03-29T05:59:54.837Z,35
2018-03-29T06:00:20.978Z,35
2018-03-29T06:00:47.116Z,35
2018-03-29T06:01:13.254Z,35
2018-03-29T06:01:39.390Z,35
2018-03-29T06:02:05.527Z,35
2018-03-29T06:02:31.664Z,35
2018-03-29T06:02:57.800Z,35
2018-03-29T06:03:23.966Z,35
2018-03-29T06:03:50.096Z,40
2018-03-29T06:04:16.232Z,35
2018-03-29T06:04:42.371Z,35
2018-03-29T06:05:08.501Z,40
2018-03-29T06:05:34.640Z,45
2018-03-29T06:06:00.773Z,45
2018-03-29T06:06:26.916Z,50
2018-03-29T06:06:53.053Z,50
2018-03-29T06:07:19.205Z,50
2018-03-29T06:07:45.329Z,50
2018-03-29T06:08:11.466Z,50
2018-03-29T06:08:37.596Z,50
2018-03-29T06:09:03.737Z,50
2018-03-29T06:09:29.874Z,45
2018-03-29T06:09:56.017Z,45
2018-03-29T06:10:22.152Z,40
2018-03-29T06:10:48.292Z,40
2018-03-29T06:11:14.423Z,40
2018-03-29T06:11:40.589Z,45
2018-03-29T06:12:06.780Z,50
2018-03-29T06:12:32.914Z,55
2018-03-29T06:12:59.057Z,60
2018-03-29T06:13:25.188Z,65
2018-03-29T06:13:51.331Z,60
2018-03-29T06:14:17.482Z,60
2018-03-29T06:14:43.623Z,60
2018-03-29T06:15:09.761Z,65
2018-03-29T06:15:35.893Z,75
2018-03-29T06:16:02.036Z,80
2018-03-29T06:16:28.173Z,75
2018-03-29T06:16:54.308Z,75
2018-03-29T06:17:20.449Z,75
2018-03-29T06:17:46.610Z,75
2018-03-29T06:18:12.718Z,75
2018-03-29T06:18:38.874Z,75
2018-03-29T06:19:05.017Z,75
2018-03-29T06:19:31.163Z,75
2018-03-29T06:19:57.291Z,75
2018-03-29T06:20:23.425Z,70
2018-03-29T06:20:49.566Z,70
2018-03-29T06:21:15.707Z,70
2018-03-29T06:21:41.833Z,75
2018-03-29T06:22:07.971Z,75
2018-03-29T06:22:34.136Z,85
2018-03-29T06:23:00.277Z,85
2018-03-29T06:23:26.415Z,85
2018-03-29T06:23:52.551Z,85
2018-03-29T06:24:18.684Z,85